createdAt,value
2022-12-11T00:00:32.538Z,43.80
2022-12-11T00:03:00.551Z,43.37
2022-12-11T00:05:28.509Z,40.10
2022-12-11T00:07:57.370Z,45.60
2022-12-11T00:10:25.359Z,42.70
2022-12-11T00:12:53.371Z,42.33
2022-12-11T00:15:21.401Z,41.93
2022-12-11T00:17:50.778Z,42.60
2022-12-11T00:20:19.119Z,39.10
2022-12-11T00:22:47.099Z,41.43
2022-12-11T00:25:15.037Z,38.77
2022-12-11T00:27:42.998Z,42.90
2022-12-11T00:30:12.022Z,38.73
2022-12-11T00:32:39.968Z,39.50
2022-12-11T00:35:11.047Z,42.77
2022-12-11T00:37:39.152Z,49.33
2022-12-11T00:40:08.510Z,40.30
2022-12-11T00:42:36.447Z,42.13
2022-12-11T00:45:04.901Z,39.97
2022-12-11T00:47:32.867Z,40.70
2022-12-11T00:50:00.782Z,39.03
2022-12-11T00:52:30.126Z,40.93
2022-12-11T00:54:58.022Z,33.17
2022-12-11T00:57:26.070Z,39.13
2022-12-11T00:59:53.998Z,38.83
2022-12-11T01:02:21.999Z,41.67
2022-12-11T01:04:49.987Z,45.17
2022-12-11T01:07:17.993Z,41.13
2022-12-11T01:10:06.689Z,40.23
2022-12-11T01:12:34.682Z,48.60
2022-12-11T01:15:02.867Z,36.67
2022-12-11T01:17:30.813Z,37.67
2022-12-11T01:19:58.822Z,36.00
2022-12-11T01:22:26.740Z,36.13
2022-12-11T01:24:56.186Z,37.13
2022-12-11T01:27:24.125Z,36.03
2022-12-11T01:29:52.209Z,38.07
2022-12-11T01:32:20.175Z,36.97
2022-12-11T01:34:48.177Z,37.63
2022-12-11T01:37:16.274Z,35.17
2022-12-11T01:39:44.194Z,38.37
2022-12-11T01:42:18.451Z,36.43
2022-12-11T01:45:39.784Z,39.27
2022-12-11T01:48:11.984Z,33.50
2022-12-11T01:50:44.913Z,35.60
2022-12-11T01:53:17.867Z,33.97
2022-12-11T01:55:47.445Z,33.67
2022-12-11T01:58:18.195Z,34.70
2022-12-11T02:00:46.170Z,38.13
2022-12-11T02:03:14.172Z,34.00
2022-12-11T02:05:42.125Z,33.97
2022-12-11T02:08:10.413Z,29.20
2022-12-11T02:10:49.882Z,32.83
2022-12-11T02:13:27.793Z,32.00
2022-12-11T02:16:06.605Z,36.87
2022-12-11T02:18:42.778Z,31.60
2022-12-11T02:21:18.066Z,30.23
2022-12-11T02:24:05.680Z,29.10
2022-12-11T02:26:48.034Z,28.53
2022-12-11T02:29:21.882Z,30.33
2022-12-11T02:31:55.557Z,29.10
2022-12-11T02:34:29.266Z,29.20
2022-12-11T02:37:03.404Z,33.03
2022-12-11T02:39:34.231Z,29.37
2022-12-11T02:42:04.007Z,25.80
2022-12-11T02:44:36.353Z,27.30
2022-12-11T02:47:06.888Z,29.50
2022-12-11T02:49:36.439Z,30.97
2022-12-11T02:52:07.257Z,26.30
2022-12-11T02:54:38.972Z,23.97
2022-12-11T02:57:10.700Z,28.10
2022-12-11T02:59:43.682Z,28.43
2022-12-11T03:02:12.879Z,29.93
2022-12-11T03:04:42.204Z,23.27
2022-12-11T03:07:14.919Z,24.10
2022-12-11T03:09:44.541Z,26.93
2022-12-11T03:12:15.470Z,25.23
2022-12-11T03:14:45.241Z,29.97
2022-12-11T03:17:18.181Z,26.77
2022-12-11T03:19:54.030Z,24.97
2022-12-11T03:22:27.505Z,24.33
2022-12-11T03:25:02.755Z,22.10
2022-12-11T03:27:37.934Z,22.70
2022-12-11T03:30:11.457Z,23.00
2022-12-11T03:32:42.997Z,20.73
2022-12-11T03:35:17.598Z,25.37
2022-12-11T03:37:47.466Z,21.40
2022-12-11T03:40:18.673Z,22.87
2022-12-11T03:42:50.614Z,19.70
2022-12-11T03:45:21.325Z,21.00
2022-12-11T03:47:51.374Z,18.97
2022-12-11T03:50:21.225Z,17.13
2022-12-11T03:52:50.150Z,19.07
2022-12-11T03:55:20.311Z,20.07
2022-12-11T03:57:48.536Z,17.37
2022-12-11T04:00:20.237Z,17.53
2022-12-11T04:03:13.215Z,19.17
2022-12-11T04:05:42.482Z,20.07
2022-12-11T04:08:10.829Z,18.63
2022-12-11T04:10:39.139Z,18.87
2022-12-11T04:13:07.253Z,19.00
2022-12-11T04:15:36.055Z,17.83
2022-12-11T04:18:21.678Z,18.40
2022-12-11T04:21:21.874Z,18.80
2022-12-11T04:24:07.454Z,16.30
2022-12-11T04:26:35.398Z,16.23
2022-12-11T04:29:03.343Z,16.43
2022-12-11T04:31:32.679Z,15.83
2022-12-11T04:34:00.707Z,16.83
2022-12-11T04:36:28.613Z,18.37
2022-12-11T04:38:56.581Z,16.43
2022-12-11T04:41:24.497Z,18.03
2022-12-11T04:43:52.510Z,16.23
2022-12-11T04:46:22.212Z,18.17
2022-12-11T04:48:57.363Z,18.97
2022-12-11T04:51:26.430Z,16.00
2022-12-11T04:53:54.386Z,19.27
2022-12-11T04:56:22.893Z,18.13
2022-12-11T04:58:51.005Z,19.53
2022-12-11T05:01:20.834Z,15.50
2022-12-11T05:03:50.940Z,16.40
2022-12-11T05:06:18.870Z,17.93
2022-12-11T05:08:46.841Z,16.93
2022-12-11T05:11:16.370Z,17.27
2022-12-11T05:13:45.460Z,16.97
2022-12-11T05:16:15.630Z,17.50
2022-12-11T05:18:43.835Z,18.63
2022-12-11T05:21:15.201Z,17.63
2022-12-11T05:23:43.561Z,19.33
2022-12-11T05:26:15.067Z,18.67
2022-12-11T05:28:44.017Z,17.73
2022-12-11T05:31:14.668Z,16.20
2022-12-11T05:33:42.691Z,15.97
2022-12-11T05:36:14.833Z,19.90
2022-12-11T05:38:42.749Z,16.73
2022-12-11T05:41:13.582Z,18.60
2022-12-11T05:43:42.401Z,18.03
2022-12-11T05:46:12.979Z,16.03
2022-12-11T05:48:41.882Z,16.10
2022-12-11T05:51:10.793Z,16.93
2022-12-11T05:53:41.446Z,17.50
2022-12-11T05:56:11.719Z,16.07
2022-12-11T05:58:40.975Z,18.63
2022-12-11T06:01:10.133Z,15.40
2022-12-11T06:03:38.491Z,18.27
2022-12-11T06:06:07.488Z,18.70
2022-12-11T06:08:36.121Z,17.40
2022-12-11T06:11:05.940Z,19.97
2022-12-11T06:13:34.118Z,15.47
2022-12-11T06:16:03.678Z,18.97
2022-12-11T06:18:32.316Z,16.57
2022-12-11T06:21:00.266Z,18.97
2022-12-11T06:23:28.219Z,19.27
2022-12-11T06:25:56.149Z,17.13
2022-12-11T06:28:25.405Z,18.57
2022-12-11T06:30:53.411Z,19.43
2022-12-11T06:33:21.355Z,20.93
2022-12-11T06:35:49.254Z,20.00
2022-12-11T06:38:17.312Z,20.40
2022-12-11T06:40:45.302Z,19.80
2022-12-11T06:43:13.210Z,18.97
2022-12-11T06:45:42.558Z,18.43
2022-12-11T06:48:10.507Z,18.27
2022-12-11T06:50:39.419Z,18.67
2022-12-11T06:53:07.365Z,20.53
2022-12-11T06:55:36.422Z,20.90
2022-12-11T06:58:04.405Z,19.67
2022-12-11T07:00:32.670Z,21.40
2022-12-11T07:03:02.022Z,20.73
2022-12-11T07:05:29.999Z,18.87
2022-12-11T07:07:58.315Z,19.47
2022-12-11T07:10:27.030Z,20.60
2022-12-11T07:12:55.217Z,20.60
2022-12-11T07:15:23.145Z,19.23
2022-12-11T07:17:51.130Z,19.30
2022-12-11T07:20:20.467Z,21.83
2022-12-11T07:22:48.346Z,18.47
2022-12-11T07:25:16.486Z,21.07
2022-12-11T07:27:44.409Z,18.60
2022-12-11T07:30:13.495Z,24.23
2022-12-11T07:32:41.467Z,20.10
2022-12-11T07:35:10.578Z,20.67
2022-12-11T07:37:42.763Z,20.30
2022-12-11T07:40:11.558Z,18.83
2022-12-11T07:42:45.810Z,20.07
2022-12-11T07:45:14.373Z,19.63
2022-12-11T07:47:42.819Z,23.47
2022-12-11T07:50:11.094Z,22.03
2022-12-11T07:52:39.038Z,20.37
2022-12-11T07:55:09.258Z,20.63
2022-12-11T07:57:37.946Z,19.47
2022-12-11T08:00:07.371Z,22.20
2022-12-11T08:02:40.341Z,19.03
2022-12-11T08:05:09.917Z,19.93
2022-12-11T08:07:38.220Z,21.80
2022-12-11T08:10:08.284Z,20.00
2022-12-11T08:12:36.297Z,19.90
2022-12-11T08:15:04.485Z,18.80
2022-12-11T08:17:38.274Z,18.20
2022-12-11T08:20:09.336Z,19.67
2022-12-11T08:22:37.345Z,20.50
2022-12-11T08:25:06.051Z,19.33
2022-12-11T08:27:35.367Z,19.70
2022-12-11T08:30:03.334Z,21.63
2022-12-11T08:32:31.300Z,21.47
2022-12-11T08:34:59.246Z,19.27
2022-12-11T08:37:27.206Z,20.40
2022-12-11T08:39:55.154Z,20.60
2022-12-11T08:42:23.079Z,19.07
2022-12-11T08:44:52.369Z,22.63
2022-12-11T08:47:21.335Z,22.83
2022-12-11T08:49:49.297Z,21.00
2022-12-11T08:52:17.271Z,19.90
2022-12-11T08:54:45.156Z,21.77
2022-12-11T08:57:13.099Z,20.73
2022-12-11T08:59:41.982Z,19.50
2022-12-11T09:02:13.315Z,20.60
2022-12-11T09:04:41.744Z,20.57
2022-12-11T09:07:09.679Z,20.73
2022-12-11T09:09:37.645Z,22.40
2022-12-11T09:12:05.994Z,20.50
2022-12-11T09:14:33.999Z,21.50
2022-12-11T09:17:01.966Z,22.50
2022-12-11T09:19:32.517Z,20.97
2022-12-11T09:22:01.629Z,20.63
2022-12-11T09:24:29.696Z,22.03
2022-12-11T09:26:57.633Z,21.50
2022-12-11T09:29:25.581Z,21.90
2022-12-11T09:31:53.478Z,19.77
2022-12-11T09:34:27.499Z,19.93
2022-12-11T09:36:59.444Z,20.83
2022-12-11T09:39:27.411Z,20.83
2022-12-11T09:42:05.162Z,19.10
2022-12-11T09:44:38.230Z,22.93
2022-12-11T09:47:21.184Z,22.67
2022-12-11T09:49:52.537Z,22.17
2022-12-11T09:52:28.602Z,23.03
2022-12-11T09:55:00.277Z,21.07
2022-12-11T09:57:40.813Z,19.93
2022-12-11T10:00:27.437Z,21.80
2022-12-11T10:03:21.873Z,20.73
2022-12-11T10:06:01.061Z,19.13
2022-12-11T10:08:40.083Z,17.53
2022-12-11T10:11:23.836Z,19.30
2022-12-11T10:14:00.088Z,21.83
2022-12-11T10:16:36.786Z,21.37
2022-12-11T10:19:05.206Z,18.20
2022-12-11T10:21:40.944Z,20.93
2022-12-11T10:24:40.790Z,18.90
2022-12-11T10:27:19.077Z,17.90
2022-12-11T10:29:47.393Z,20.97
2022-12-11T10:32:24.506Z,19.23
2022-12-11T10:34:58.641Z,18.33
2022-12-11T10:37:26.630Z,17.20
2022-12-11T10:39:55.917Z,17.53
2022-12-11T10:42:24.502Z,17.60
2022-12-11T10:45:00.580Z,18.80
2022-12-11T10:47:28.997Z,19.17
2022-12-11T10:49:58.925Z,17.83
2022-12-11T10:52:28.839Z,17.60
2022-12-11T10:55:01.102Z,20.07
2022-12-11T10:57:30.822Z,17.33
2022-12-11T11:00:00.188Z,19.93
2022-12-11T11:02:31.481Z,18.60
2022-12-11T11:05:01.312Z,17.47
2022-12-11T11:07:31.061Z,18.93
2022-12-11T11:10:16.729Z,17.73
2022-12-11T11:12:47.506Z,18.20
2022-12-11T11:15:17.209Z,17.30
2022-12-11T11:17:54.633Z,18.57
2022-12-11T11:20:25.390Z,16.83
2022-12-11T11:22:56.919Z,17.63
2022-12-11T11:25:28.453Z,19.00
2022-12-11T11:27:58.033Z,18.37
2022-12-11T11:30:27.928Z,19.80
2022-12-11T11:32:57.434Z,15.80
2022-12-11T11:35:26.825Z,14.97
2022-12-11T11:38:14.189Z,16.90
2022-12-11T11:40:49.311Z,14.43
2022-12-11T11:43:29.053Z,15.73
2022-12-11T11:46:00.654Z,14.37
2022-12-11T11:48:37.903Z,13.97
2022-12-11T11:51:14.913Z,15.30
2022-12-11T11:53:44.605Z,14.97
2022-12-11T11:56:22.237Z,14.53
2022-12-11T11:59:01.052Z,14.10
2022-12-11T12:01:29.803Z,13.93
2022-12-11T12:03:58.465Z,14.70
2022-12-11T12:06:39.999Z,14.20
2022-12-11T12:09:20.723Z,12.03
2022-12-11T12:11:59.242Z,14.83
2022-12-11T12:17:32.447Z,13.93
2022-12-11T12:20:08.805Z,13.23
2022-12-11T12:22:58.950Z,15.20
2022-12-11T12:25:32.801Z,15.83
2022-12-11T12:28:16.444Z,15.97
2022-12-11T12:30:55.522Z,15.93
2022-12-11T12:33:35.493Z,15.43
2022-12-11T12:36:12.325Z,13.63
2022-12-11T12:38:51.135Z,14.57
2022-12-11T12:41:23.347Z,16.30
2022-12-11T12:44:05.333Z,16.57
2022-12-11T12:46:52.322Z,16.27
2022-12-11T12:49:33.746Z,15.67
2022-12-11T12:52:02.795Z,15.60
2022-12-11T12:54:33.322Z,18.20
2022-12-11T12:57:05.058Z,15.23
2022-12-11T12:59:34.378Z,16.23
2022-12-11T13:02:05.057Z,14.73
2022-12-11T13:04:55.457Z,17.13
2022-12-11T13:07:29.493Z,15.23
2022-12-11T13:09:59.713Z,14.30
2022-12-11T13:12:35.239Z,14.00
2022-12-11T13:15:05.185Z,14.73
2022-12-11T13:17:38.530Z,15.07
2022-12-11T13:20:17.861Z,14.70
2022-12-11T13:22:55.877Z,14.77
2022-12-11T13:25:29.550Z,14.73
2022-12-11T13:28:07.313Z,15.50
2022-12-11T13:30:36.718Z,15.00
2022-12-11T13:33:07.116Z,14.73
2022-12-11T13:35:36.012Z,12.60
2022-12-11T13:38:09.283Z,12.97
2022-12-11T13:40:42.647Z,14.60
2022-12-11T13:43:19.345Z,13.53
2022-12-11T13:45:52.400Z,13.43
2022-12-11T13:48:25.116Z,13.30
2022-12-11T13:50:54.550Z,14.13
2022-12-11T13:53:23.498Z,13.83
2022-12-11T13:55:59.324Z,14.90
2022-12-11T13:58:28.283Z,12.77
2022-12-11T14:01:07.492Z,14.00
2022-12-11T14:03:36.339Z,12.67
2022-12-11T14:06:04.843Z,13.90
2022-12-11T14:08:36.473Z,13.53
2022-12-11T14:11:05.815Z,15.00
2022-12-11T14:13:36.872Z,12.03
2022-12-11T14:16:08.058Z,15.23
2022-12-11T14:18:37.670Z,13.03
2022-12-11T14:21:07.411Z,12.93
2022-12-11T14:23:38.247Z,15.13
2022-12-11T14:26:17.938Z,14.70
2022-12-11T14:28:45.938Z,14.40
2022-12-11T14:31:19.563Z,14.40
2022-12-11T14:33:52.719Z,13.80
2022-12-11T14:36:21.706Z,15.73
2022-12-11T14:38:53.401Z,13.77
2022-12-11T14:41:27.473Z,13.73
2022-12-11T14:43:58.661Z,13.90
2022-12-11T14:46:41.442Z,13.93
2022-12-11T14:49:18.828Z,11.73
2022-12-11T14:51:47.977Z,12.57
2022-12-11T14:54:23.143Z,14.20
2022-12-11T14:56:51.258Z,13.20
2022-12-11T14:59:28.314Z,14.80
2022-12-11T15:02:02.699Z,12.43
2022-12-11T15:04:32.699Z,12.77
2022-12-11T15:07:01.206Z,13.70
2022-12-11T15:09:30.905Z,12.13
2022-12-11T15:12:08.654Z,12.20
2022-12-11T15:14:36.884Z,12.07
2022-12-11T15:17:15.135Z,12.03
2022-12-11T15:19:49.158Z,13.63
2022-12-11T15:22:18.463Z,12.63
2022-12-11T15:24:47.402Z,12.67
2022-12-11T15:27:25.690Z,14.67
2022-12-11T15:29:53.888Z,14.43
2022-12-11T15:32:23.858Z,14.50
2022-12-11T15:34:53.256Z,14.87
2022-12-11T15:37:23.226Z,14.07
2022-12-11T15:39:51.692Z,16.03
2022-12-11T15:42:26.296Z,18.17
2022-12-11T15:44:55.319Z,15.47
2022-12-11T15:47:26.645Z,15.07
2022-12-11T15:49:58.029Z,16.33
2022-12-11T15:52:25.985Z,14.17
2022-12-11T15:54:54.038Z,15.77
2022-12-11T15:57:25.004Z,14.90
2022-12-11T15:59:55.175Z,18.17
2022-12-11T16:02:26.707Z,14.83
2022-12-11T16:04:57.377Z,15.80
2022-12-11T16:07:27.134Z,15.07
2022-12-11T16:09:55.066Z,17.13
2022-12-11T16:12:23.013Z,15.60
2022-12-11T16:14:50.900Z,15.27
2022-12-11T16:17:19.150Z,14.47
2022-12-11T16:19:48.425Z,15.87
2022-12-11T16:22:16.436Z,19.93
2022-12-11T16:24:44.451Z,22.43
2022-12-11T16:27:12.487Z,19.03
2022-12-11T16:29:42.301Z,18.87
2022-12-11T16:32:10.918Z,19.57
2022-12-11T16:34:39.153Z,16.00
2022-12-11T16:37:09.513Z,18.10
2022-12-11T16:39:38.954Z,17.63
2022-12-11T16:42:07.712Z,15.60
2022-12-11T16:44:39.538Z,15.57
2022-12-11T16:47:10.456Z,15.77
2022-12-11T16:49:38.426Z,18.03
2022-12-11T16:52:08.049Z,23.67
2022-12-11T16:54:36.078Z,16.87
2022-12-11T16:57:04.520Z,16.30
2022-12-11T16:59:37.211Z,16.93
2022-12-11T17:02:06.329Z,17.50
2022-12-11T17:04:34.277Z,18.30
2022-12-11T17:07:02.189Z,17.57
2022-12-11T17:09:31.969Z,18.83
2022-12-11T17:12:00.113Z,14.90
2022-12-11T17:14:28.076Z,16.63
2022-12-11T17:16:56.637Z,16.40
2022-12-11T17:19:24.808Z,19.23
2022-12-11T17:21:54.074Z,18.50
2022-12-11T17:24:22.044Z,19.97
2022-12-11T17:26:51.386Z,17.07
2022-12-11T17:29:19.927Z,18.83
2022-12-11T17:31:48.382Z,18.17
2022-12-11T17:34:16.883Z,17.80
2022-12-11T17:36:46.438Z,23.20
2022-12-11T17:39:14.341Z,19.57
2022-12-11T17:41:42.330Z,18.60
2022-12-11T17:44:11.632Z,18.17
2022-12-11T17:46:39.687Z,16.10
2022-12-11T17:49:07.661Z,16.17
2022-12-11T17:51:36.167Z,17.90
2022-12-11T17:54:04.287Z,19.00
2022-12-11T17:56:34.698Z,18.07
2022-12-11T17:59:02.788Z,20.17
2022-12-11T18:01:32.351Z,16.93
2022-12-11T18:04:01.418Z,21.33
2022-12-11T18:06:29.621Z,18.50
2022-12-11T18:08:58.881Z,18.93
2022-12-11T18:11:27.135Z,17.83
2022-12-11T18:13:55.378Z,17.33
2022-12-11T18:16:26.067Z,18.60
2022-12-11T18:18:56.428Z,18.43
2022-12-11T18:21:26.853Z,18.87
2022-12-11T18:23:54.836Z,18.20
2022-12-11T18:26:23.572Z,17.70
2022-12-11T18:28:52.906Z,17.33
2022-12-11T18:31:21.897Z,19.60
2022-12-11T18:33:50.502Z,17.00
2022-12-11T18:36:21.297Z,19.13
2022-12-11T18:38:50.003Z,18.50
2022-12-11T18:41:19.572Z,17.77
2022-12-11T18:43:47.804Z,18.30
2022-12-11T18:46:18.740Z,19.97
2022-12-11T18:48:47.552Z,19.63
2022-12-11T18:51:17.335Z,17.67
2022-12-11T18:53:46.713Z,16.47
2022-12-11T18:56:17.010Z,20.03
2022-12-11T18:58:45.424Z,20.43
2022-12-11T19:01:16.614Z,18.40
2022-12-11T19:03:45.570Z,20.30
2022-12-11T19:06:15.229Z,19.30
2022-12-11T19:08:43.605Z,21.33
2022-12-11T19:11:16.082Z,18.43
2022-12-11T19:13:44.250Z,19.47
2022-12-11T19:16:16.771Z,18.53
2022-12-11T19:18:45.191Z,20.60
2022-12-11T19:21:14.020Z,18.83
2022-12-11T19:23:43.415Z,19.23
2022-12-11T19:26:15.392Z,21.77
2022-12-11T19:28:43.518Z,22.10
2022-12-11T19:31:12.743Z,21.30
2022-12-11T19:33:41.148Z,21.63
2022-12-11T19:36:11.133Z,22.30
2022-12-11T19:38:40.973Z,21.63
2022-12-11T19:41:10.484Z,20.50
2022-12-11T19:43:39.846Z,19.30
2022-12-11T19:46:09.543Z,19.90
2022-12-11T19:48:38.544Z,22.60
2022-12-11T19:51:07.173Z,22.03
2022-12-11T19:53:35.512Z,22.83
2022-12-11T19:56:04.239Z,24.97
2022-12-11T19:58:32.470Z,20.43
2022-12-11T20:01:02.580Z,23.17
2022-12-11T20:03:31.472Z,24.07
2022-12-11T20:06:03.275Z,25.73
2022-12-11T20:08:46.978Z,21.13
2022-12-11T20:11:18.728Z,24.40
2022-12-11T20:13:47.369Z,23.77
2022-12-11T20:16:17.410Z,22.57
2022-12-11T20:18:45.958Z,22.23
2022-12-11T20:21:16.513Z,23.10
2022-12-11T20:23:44.759Z,23.07
2022-12-11T20:26:15.151Z,22.40
2022-12-11T20:28:44.834Z,23.67
2022-12-11T20:31:19.703Z,22.07
2022-12-11T20:33:50.202Z,22.53
2022-12-11T20:36:20.445Z,22.37
2022-12-11T20:38:48.493Z,23.73
2022-12-11T20:41:19.381Z,24.07
2022-12-11T20:43:48.889Z,25.57
2022-12-11T20:46:17.750Z,22.23
2022-12-11T20:48:46.742Z,25.03
2022-12-11T20:51:23.962Z,20.63
2022-12-11T20:53:58.652Z,22.40
2022-12-11T20:56:29.181Z,21.27
2022-12-11T20:58:57.765Z,23.80
2022-12-11T21:01:28.046Z,29.97
2022-12-11T21:03:56.269Z,37.10
2022-12-11T21:06:28.303Z,32.87
2022-12-11T21:08:56.234Z,38.53
2022-12-11T21:11:24.532Z,30.67
2022-12-11T21:13:52.628Z,30.80
2022-12-11T21:16:21.248Z,29.10
2022-12-11T21:18:49.652Z,26.20
2022-12-11T21:21:18.117Z,30.53
2022-12-11T21:23:47.442Z,27.63
2022-12-11T21:26:15.558Z,22.23
2022-12-11T21:28:43.513Z,30.37
2022-12-11T21:31:15.188Z,25.43
2022-12-11T21:33:43.500Z,27.30
2022-12-11T21:36:13.197Z,24.33
2022-12-11T21:38:44.222Z,25.57
2022-12-11T21:41:16.630Z,24.57
2022-12-11T21:45:03.396Z,25.40
2022-12-11T21:46:34.440Z,27.73
2022-12-11T21:49:02.504Z,29.77
2022-12-11T21:51:36.852Z,29.20
2022-12-11T21:54:06.771Z,32.60
2022-12-11T21:56:36.031Z,27.27
2022-12-11T21:59:05.480Z,25.10
2022-12-11T22:01:36.037Z,27.90
2022-12-11T22:04:05.865Z,26.43
2022-12-11T22:06:34.461Z,24.10
2022-12-11T22:09:02.638Z,23.83
2022-12-11T22:11:33.025Z,29.40
2022-12-11T22:14:02.362Z,24.57
2022-12-11T22:16:30.917Z,26.33
2022-12-11T22:18:58.880Z,26.93
2022-12-11T22:21:26.885Z,22.87
2022-12-11T22:23:55.576Z,22.57
2022-12-11T22:26:26.168Z,24.27
2022-12-11T22:28:54.325Z,24.80
2022-12-11T22:31:26.105Z,23.90
2022-12-11T22:33:55.125Z,25.17
2022-12-11T22:36:23.813Z,24.43
2022-12-11T22:38:52.279Z,28.50
2022-12-11T22:41:25.868Z,25.83
2022-12-11T22:43:54.437Z,28.53
2022-12-11T22:46:25.742Z,26.83
2022-12-11T22:48:54.666Z,29.30
2022-12-11T22:51:22.963Z,26.63
2022-12-11T22:53:51.153Z,29.13
2022-12-11T22:56:19.501Z,26.77
2022-12-11T22:58:47.442Z,25.23
2022-12-11T23:01:17.402Z,27.17
2022-12-11T23:03:47.122Z,27.00
2022-12-11T23:06:17.659Z,27.30
2022-12-11T23:08:46.169Z,26.20
2022-12-11T23:11:16.081Z,25.83
2022-12-11T23:13:44.450Z,27.10
2022-12-11T23:16:13.399Z,27.07
2022-12-11T23:18:41.569Z,25.93
2022-12-11T23:21:12.281Z,26.47
2022-12-11T23:23:40.554Z,27.53
2022-12-11T23:26:10.203Z,26.47
2022-12-11T23:28:38.677Z,26.83
2022-12-11T23:31:06.650Z,30.60
2022-12-11T23:33:34.625Z,27.57
2022-12-11T23:36:02.825Z,30.27
2022-12-11T23:38:32.124Z,27.23
2022-12-11T23:41:01.738Z,26.93
2022-12-11T23:43:30.133Z,27.07
2022-12-11T23:45:58.287Z,28.70
2022-12-11T23:48:26.305Z,29.53
2022-12-11T23:50:58.443Z,26.83
2022-12-11T23:53:26.426Z,26.70
2022-12-11T23:55:56.351Z,33.57
2022-12-11T23:58:24.374Z,29.43
